Felanitx, Spain
Current Conditions -  °F | °C
As of 3:30 AM on Thursday 18 Dec 2014 (Local Time) from LEPA Reporting Station
Few Clouds Few Clouds  
Wind Chill: 59°   Ceiling: Unl
Heat Index: 59°   Visibility: 6mi
Dew Point: 48°   Wind: 8mph
Humidity: 67%   Direction: 280°W
Pressure: 30.15"   Gusts: NA
Location:  39.47°N, 3.15°E
Report Text: LEPA 180230Z 28007KT 9999 FEW025 15/09 Q1021 NOSIG
Loading
Personal Weather Stations






























Interactive Weather Map New forecast layout! Learn more

10-Day Weather Forecast

Advertisements
Track Severe Weather on mobile